sensor_id;sensor_type;location;lat;lon;timestamp;P1;durP1;ratioP1;P2;durP2;ratioP2
70929;SDS011;58588;48.102;19.682;2022-07-03T00:01:39;13.48;;;6.82;;
70929;SDS011;58588;48.102;19.682;2022-07-03T00:04:41;12.37;;;7.00;;
70929;SDS011;58588;48.102;19.682;2022-07-03T00:07:43;12.50;;;6.93;;
70929;SDS011;58588;48.102;19.682;2022-07-03T00:10:46;12.52;;;6.70;;
70929;SDS011;58588;48.102;19.682;2022-07-03T00:13:48;14.60;;;7.38;;
70929;SDS011;58588;48.102;19.682;2022-07-03T00:16:50;13.27;;;7.05;;
70929;SDS011;58588;48.102;19.682;2022-07-03T00:19:52;15.63;;;7.53;;
70929;SDS011;58588;48.102;19.682;2022-07-03T00:22:55;14.35;;;7.43;;
70929;SDS011;58588;48.102;19.682;2022-07-03T00:26:03;13.85;;;7.13;;
70929;SDS011;58588;48.102;19.682;2022-07-03T00:29:06;12.80;;;7.15;;
70929;SDS011;58588;48.102;19.682;2022-07-03T00:32:12;13.73;;;7.35;;
70929;SDS011;58588;48.102;19.682;2022-07-03T00:35:19;15.83;;;7.17;;
70929;SDS011;58588;48.102;19.682;2022-07-03T00:38:21;14.25;;;7.18;;
70929;SDS011;58588;48.102;19.682;2022-07-03T00:41:25;12.30;;;7.10;;
70929;SDS011;58588;48.102;19.682;2022-07-03T00:44:28;14.75;;;7.00;;
70929;SDS011;58588;48.102;19.682;2022-07-03T00:47:31;13.07;;;6.70;;
70929;SDS011;58588;48.102;19.682;2022-07-03T00:50:36;12.90;;;6.73;;
70929;SDS011;58588;48.102;19.682;2022-07-03T00:53:38;13.20;;;7.03;;
70929;SDS011;58588;48.102;19.682;2022-07-03T00:56:46;12.00;;;6.60;;
70929;SDS011;58588;48.102;19.682;2022-07-03T00:59:52;14.55;;;7.13;;
70929;SDS011;58588;48.102;19.682;2022-07-03T01:02:55;14.95;;;7.07;;
70929;SDS011;58588;48.102;19.682;2022-07-03T01:06:01;13.50;;;6.90;;
70929;SDS011;58588;48.102;19.682;2022-07-03T01:09:07;16.75;;;7.22;;
70929;SDS011;58588;48.102;19.682;2022-07-03T01:12:13;14.40;;;7.43;;
70929;SDS011;58588;48.102;19.682;2022-07-03T01:15:30;14.38;;;7.15;;
70929;SDS011;58588;48.102;19.682;2022-07-03T01:18:43;12.23;;;6.60;;
70929;SDS011;58588;48.102;19.682;2022-07-03T01:21:50;13.77;;;7.17;;
70929;SDS011;58588;48.102;19.682;2022-07-03T01:25:03;14.55;;;6.90;;
70929;SDS011;58588;48.102;19.682;2022-07-03T01:28:18;12.65;;;6.85;;
70929;SDS011;58588;48.102;19.682;2022-07-03T01:31:24;12.60;;;6.75;;
70929;SDS011;58588;48.102;19.682;2022-07-03T01:34:29;14.90;;;6.90;;
70929;SDS011;58588;48.102;19.682;2022-07-03T01:37:36;11.93;;;6.43;;
70929;SDS011;58588;48.102;19.682;2022-07-03T01:40:41;12.13;;;6.93;;
70929;SDS011;58588;48.102;19.682;2022-07-03T01:43:47;12.05;;;6.50;;
70929;SDS011;58588;48.102;19.682;2022-07-03T01:46:49;13.00;;;7.22;;
70929;SDS011;58588;48.102;19.682;2022-07-03T01:49:53;13.18;;;6.88;;
70929;SDS011;58588;48.102;19.682;2022-07-03T01:52:56;13.13;;;7.23;;
70929;SDS011;58588;48.102;19.682;2022-07-03T01:56:02;14.73;;;7.30;;
70929;SDS011;58588;48.102;19.682;2022-07-03T01:59:06;12.43;;;6.72;;
70929;SDS011;58588;48.102;19.682;2022-07-03T02:02:09;11.77;;;6.63;;
70929;SDS011;58588;48.102;19.682;2022-07-03T02:05:22;14.57;;;6.95;;
70929;SDS011;58588;48.102;19.682;2022-07-03T02:08:43;15.00;;;7.60;;
70929;SDS011;58588;48.102;19.682;2022-07-03T02:11:49;23.10;;;8.25;;
70929;SDS011;58588;48.102;19.682;2022-07-03T02:14:56;16.27;;;7.03;;
70929;SDS011;58588;48.102;19.682;2022-07-03T02:18:05;16.73;;;7.38;;
70929;SDS011;58588;48.102;19.682;2022-07-03T02:21:13;13.57;;;7.20;;
70929;SDS011;58588;48.102;19.682;2022-07-03T02:24:17;12.40;;;6.93;;
70929;SDS011;58588;48.102;19.682;2022-07-03T02:27:21;13.95;;;7.50;;
70929;SDS011;58588;48.102;19.682;2022-07-03T02:30:26;13.23;;;6.82;;
70929;SDS011;58588;48.102;19.682;2022-07-03T02:33:30;12.98;;;6.68;;
70929;SDS011;58588;48.102;19.682;2022-07-03T02:36:34;13.20;;;7.28;;
70929;SDS011;58588;48.102;19.682;2022-07-03T02:39:41;13.90;;;7.20;;
70929;SDS011;58588;48.102;19.682;2022-07-03T02:42:47;15.25;;;7.30;;
70929;SDS011;58588;48.102;19.682;2022-07-03T02:46:02;13.35;;;7.13;;
70929;SDS011;58588;48.102;19.682;2022-07-03T02:49:37;13.18;;;6.35;;
70929;SDS011;58588;48.102;19.682;2022-07-03T02:52:56;15.93;;;7.38;;
70929;SDS011;58588;48.102;19.682;2022-07-03T02:56:05;15.77;;;7.53;;
70929;SDS011;58588;48.102;19.682;2022-07-03T02:59:17;13.60;;;7.10;;
70929;SDS011;58588;48.102;19.682;2022-07-03T03:02:38;15.18;;;7.00;;
70929;SDS011;58588;48.102;19.682;2022-07-03T03:05:52;12.93;;;6.38;;
70929;SDS011;58588;48.102;19.682;2022-07-03T03:08:59;14.98;;;6.63;;
70929;SDS011;58588;48.102;19.682;2022-07-03T03:12:03;12.73;;;6.83;;
70929;SDS011;58588;48.102;19.682;2022-07-03T03:15:07;11.93;;;5.93;;
70929;SDS011;58588;48.102;19.682;2022-07-03T03:18:16;12.25;;;6.65;;
70929;SDS011;58588;48.102;19.682;2022-07-03T03:21:23;13.50;;;6.85;;
70929;SDS011;58588;48.102;19.682;2022-07-03T03:24:29;12.32;;;7.13;;
70929;SDS011;58588;48.102;19.682;2022-07-03T03:27:32;14.10;;;6.63;;
70929;SDS011;58588;48.102;19.682;2022-07-03T03:30:35;13.50;;;6.78;;
70929;SDS011;58588;48.102;19.682;2022-07-03T03:33:40;12.70;;;6.50;;
70929;SDS011;58588;48.102;19.682;2022-07-03T03:36:43;14.07;;;6.88;;
70929;SDS011;58588;48.102;19.682;2022-07-03T03:39:45;14.43;;;6.67;;
70929;SDS011;58588;48.102;19.682;2022-07-03T03:42:47;14.77;;;7.63;;
70929;SDS011;58588;48.102;19.682;2022-07-03T03:45:49;14.65;;;7.32;;
70929;SDS011;58588;48.102;19.682;2022-07-03T03:48:53;16.65;;;7.80;;
70929;SDS011;58588;48.102;19.682;2022-07-03T03:51:55;27.02;;;7.72;;
70929;SDS011;58588;48.102;19.682;2022-07-03T03:54:57;17.30;;;7.25;;
70929;SDS011;58588;48.102;19.682;2022-07-03T03:57:59;15.37;;;7.40;;
70929;SDS011;58588;48.102;19.682;2022-07-03T04:01:02;16.98;;;8.30;;
70929;SDS011;58588;48.102;19.682;2022-07-03T04:04:07;15.95;;;7.28;;
70929;SDS011;58588;48.102;19.682;2022-07-03T04:07:12;14.68;;;7.68;;
70929;SDS011;58588;48.102;19.682;2022-07-03T04:10:14;14.07;;;7.75;;
70929;SDS011;58588;48.102;19.682;2022-07-03T04:13:16;15.90;;;7.80;;
70929;SDS011;58588;48.102;19.682;2022-07-03T04:16:19;16.70;;;7.32;;
70929;SDS011;58588;48.102;19.682;2022-07-03T04:19:22;13.45;;;7.50;;
70929;SDS011;58588;48.102;19.682;2022-07-03T04:22:25;16.00;;;7.40;;
70929;SDS011;58588;48.102;19.682;2022-07-03T04:25:27;15.50;;;7.50;;
70929;SDS011;58588;48.102;19.682;2022-07-03T04:28:29;16.73;;;8.10;;
70929;SDS011;58588;48.102;19.682;2022-07-03T04:31:31;15.07;;;8.25;;
70929;SDS011;58588;48.102;19.682;2022-07-03T04:34:34;15.77;;;7.75;;
70929;SDS011;58588;48.102;19.682;2022-07-03T04:37:36;14.57;;;8.05;;
70929;SDS011;58588;48.102;19.682;2022-07-03T04:40:38;14.73;;;8.50;;
70929;SDS011;58588;48.102;19.682;2022-07-03T04:43:40;15.30;;;7.87;;
70929;SDS011;58588;48.102;19.682;2022-07-03T04:46:42;15.25;;;8.07;;
70929;SDS011;58588;48.102;19.682;2022-07-03T04:49:45;15.13;;;7.43;;
70929;SDS011;58588;48.102;19.682;2022-07-03T04:52:47;16.05;;;7.50;;
70929;SDS011;58588;48.102;19.682;2022-07-03T04:55:49;15.15;;;7.55;;
70929;SDS011;58588;48.102;19.682;2022-07-03T04:58:51;15.87;;;7.70;;
70929;SDS011;58588;48.102;19.682;2022-07-03T05:01:53;16.45;;;8.50;;
70929;SDS011;58588;48.102;19.682;2022-07-03T05:04:56;15.43;;;7.97;;
70929;SDS011;58588;48.102;19.682;2022-07-03T05:07:58;15.80;;;8.63;;
70929;SDS011;58588;48.102;19.682;2022-07-03T05:11:00;18.77;;;8.70;;
70929;SDS011;58588;48.102;19.682;2022-07-03T05:14:02;16.30;;;8.17;;
70929;SDS011;58588;48.102;19.682;2022-07-03T05:17:04;14.90;;;8.13;;
70929;SDS011;58588;48.102;19.682;2022-07-03T05:20:08;13.65;;;7.65;;
70929;SDS011;58588;48.102;19.682;2022-07-03T05:23:25;13.60;;;7.70;;
70929;SDS011;58588;48.102;19.682;2022-07-03T05:26:27;14.77;;;7.43;;
70929;SDS011;58588;48.102;19.682;2022-07-03T05:29:29;12.57;;;7.30;;
70929;SDS011;58588;48.102;19.682;2022-07-03T05:32:31;13.77;;;7.85;;
70929;SDS011;58588;48.102;19.682;2022-07-03T05:35:35;13.25;;;7.55;;
70929;SDS011;58588;48.102;19.682;2022-07-03T05:38:37;13.77;;;7.63;;
70929;SDS011;58588;48.102;19.682;2022-07-03T05:41:56;12.98;;;7.25;;
70929;SDS011;58588;48.102;19.682;2022-07-03T05:44:58;13.80;;;7.30;;
70929;SDS011;58588;48.102;19.682;2022-07-03T05:48:00;12.95;;;7.55;;
70929;SDS011;58588;48.102;19.682;2022-07-03T05:51:03;12.25;;;6.90;;
70929;SDS011;58588;48.102;19.682;2022-07-03T05:54:05;12.75;;;6.82;;
70929;SDS011;58588;48.102;19.682;2022-07-03T05:57:08;13.50;;;6.82;;
70929;SDS011;58588;48.102;19.682;2022-07-03T06:00:11;14.83;;;7.43;;
70929;SDS011;58588;48.102;19.682;2022-07-03T06:03:13;13.82;;;6.80;;
70929;SDS011;58588;48.102;19.682;2022-07-03T06:06:16;12.93;;;7.47;;
70929;SDS011;58588;48.102;19.682;2022-07-03T06:09:18;12.27;;;6.40;;
70929;SDS011;58588;48.102;19.682;2022-07-03T06:12:20;11.45;;;6.65;;
70929;SDS011;58588;48.102;19.682;2022-07-03T06:15:22;11.00;;;6.10;;
70929;SDS011;58588;48.102;19.682;2022-07-03T06:18:24;13.13;;;6.45;;
70929;SDS011;58588;48.102;19.682;2022-07-03T06:21:28;13.45;;;6.65;;
70929;SDS011;58588;48.102;19.682;2022-07-03T06:24:30;11.18;;;6.75;;
70929;SDS011;58588;48.102;19.682;2022-07-03T06:27:32;11.00;;;6.50;;
70929;SDS011;58588;48.102;19.682;2022-07-03T06:30:34;11.00;;;6.47;;
70929;SDS011;58588;48.102;19.682;2022-07-03T06:33:36;10.95;;;6.43;;
70929;SDS011;58588;48.102;19.682;2022-07-03T06:36:39;10.77;;;6.45;;
70929;SDS011;58588;48.102;19.682;2022-07-03T06:39:41;10.73;;;6.40;;
70929;SDS011;58588;48.102;19.682;2022-07-03T06:42:43;11.98;;;5.95;;
70929;SDS011;58588;48.102;19.682;2022-07-03T06:45:45;11.27;;;6.17;;
70929;SDS011;58588;48.102;19.682;2022-07-03T06:48:47;10.38;;;6.15;;
70929;SDS011;58588;48.102;19.682;2022-07-03T06:51:50;12.90;;;6.57;;
70929;SDS011;58588;48.102;19.682;2022-07-03T06:54:52;11.57;;;6.57;;
70929;SDS011;58588;48.102;19.682;2022-07-03T06:57:54;9.25;;;5.93;;
70929;SDS011;58588;48.102;19.682;2022-07-03T07:00:56;13.23;;;6.43;;
70929;SDS011;58588;48.102;19.682;2022-07-03T07:03:58;13.30;;;6.55;;
70929;SDS011;58588;48.102;19.682;2022-07-03T07:07:01;10.95;;;6.00;;
70929;SDS011;58588;48.102;19.682;2022-07-03T07:10:04;9.88;;;5.88;;
70929;SDS011;58588;48.102;19.682;2022-07-03T07:13:06;11.75;;;6.32;;
70929;SDS011;58588;48.102;19.682;2022-07-03T07:16:09;11.67;;;6.03;;
70929;SDS011;58588;48.102;19.682;2022-07-03T07:19:11;11.68;;;6.20;;
70929;SDS011;58588;48.102;19.682;2022-07-03T07:22:15;9.85;;;6.03;;
70929;SDS011;58588;48.102;19.682;2022-07-03T07:25:17;9.50;;;5.90;;
70929;SDS011;58588;48.102;19.682;2022-07-03T07:28:20;11.25;;;6.10;;
70929;SDS011;58588;48.102;19.682;2022-07-03T07:31:22;10.77;;;6.13;;
70929;SDS011;58588;48.102;19.682;2022-07-03T07:34:24;13.10;;;6.13;;
70929;SDS011;58588;48.102;19.682;2022-07-03T07:37:27;10.15;;;5.72;;
70929;SDS011;58588;48.102;19.682;2022-07-03T07:40:29;13.23;;;6.32;;
70929;SDS011;58588;48.102;19.682;2022-07-03T07:43:31;11.20;;;5.75;;
70929;SDS011;58588;48.102;19.682;2022-07-03T07:46:33;10.40;;;5.97;;
70929;SDS011;58588;48.102;19.682;2022-07-03T07:49:35;11.45;;;5.68;;
70929;SDS011;58588;48.102;19.682;2022-07-03T07:52:39;11.10;;;5.78;;
70929;SDS011;58588;48.102;19.682;2022-07-03T07:55:41;11.23;;;6.10;;
70929;SDS011;58588;48.102;19.682;2022-07-03T07:58:42;10.95;;;5.70;;
70929;SDS011;58588;48.102;19.682;2022-07-03T08:01:44;10.33;;;5.80;;
70929;SDS011;58588;48.102;19.682;2022-07-03T08:05:04;9.45;;;5.70;;
70929;SDS011;58588;48.102;19.682;2022-07-03T08:08:25;9.13;;;5.82;;
70929;SDS011;58588;48.102;19.682;2022-07-03T08:11:27;9.90;;;5.55;;
70929;SDS011;58588;48.102;19.682;2022-07-03T08:14:29;10.00;;;6.00;;
70929;SDS011;58588;48.102;19.682;2022-07-03T08:17:31;10.13;;;6.13;;
70929;SDS011;58588;48.102;19.682;2022-07-03T08:20:33;9.30;;;5.57;;
70929;SDS011;58588;48.102;19.682;2022-07-03T08:23:37;10.00;;;5.75;;
70929;SDS011;58588;48.102;19.682;2022-07-03T08:26:40;10.45;;;5.93;;
70929;SDS011;58588;48.102;19.682;2022-07-03T08:29:41;8.90;;;5.85;;
70929;SDS011;58588;48.102;19.682;2022-07-03T08:32:44;10.77;;;6.00;;
70929;SDS011;58588;48.102;19.682;2022-07-03T08:35:47;10.73;;;5.97;;
70929;SDS011;58588;48.102;19.682;2022-07-03T08:38:51;8.98;;;5.60;;
70929;SDS011;58588;48.102;19.682;2022-07-03T08:41:53;10.48;;;5.75;;
70929;SDS011;58588;48.102;19.682;2022-07-03T08:44:57;13.30;;;6.05;;
70929;SDS011;58588;48.102;19.682;2022-07-03T08:48:01;8.97;;;5.73;;
70929;SDS011;58588;48.102;19.682;2022-07-03T08:57:47;9.07;;;5.90;;
70929;SDS011;58588;48.102;19.682;2022-07-03T09:00:50;8.43;;;5.43;;
70929;SDS011;58588;48.102;19.682;2022-07-03T09:03:53;10.00;;;5.20;;
70929;SDS011;58588;48.102;19.682;2022-07-03T09:06:56;10.48;;;5.88;;
70929;SDS011;58588;48.102;19.682;2022-07-03T09:10:01;11.25;;;5.95;;
70929;SDS011;58588;48.102;19.682;2022-07-03T09:13:04;10.40;;;5.85;;
70929;SDS011;58588;48.102;19.682;2022-07-03T09:16:06;12.45;;;6.28;;
70929;SDS011;58588;48.102;19.682;2022-07-03T09:19:34;11.33;;;5.93;;
70929;SDS011;58588;48.102;19.682;2022-07-03T09:22:44;11.73;;;5.65;;
70929;SDS011;58588;48.102;19.682;2022-07-03T09:25:54;12.70;;;5.57;;
70929;SDS011;58588;48.102;19.682;2022-07-03T09:28:57;9.63;;;4.75;;
70929;SDS011;58588;48.102;19.682;2022-07-03T09:31:58;9.00;;;5.07;;
70929;SDS011;58588;48.102;19.682;2022-07-03T09:35:11;7.80;;;4.80;;
70929;SDS011;58588;48.102;19.682;2022-07-03T09:38:23;8.73;;;4.75;;
70929;SDS011;58588;48.102;19.682;2022-07-03T09:41:26;9.40;;;5.05;;
70929;SDS011;58588;48.102;19.682;2022-07-03T09:44:29;8.30;;;4.93;;
70929;SDS011;58588;48.102;19.682;2022-07-03T09:47:32;9.15;;;5.30;;
70929;SDS011;58588;48.102;19.682;2022-07-03T09:50:34;9.80;;;5.53;;
70929;SDS011;58588;48.102;19.682;2022-07-03T09:53:43;9.95;;;5.47;;
70929;SDS011;58588;48.102;19.682;2022-07-03T09:56:49;8.70;;;5.05;;
70929;SDS011;58588;48.102;19.682;2022-07-03T09:59:58;7.55;;;4.90;;
70929;SDS011;58588;48.102;19.682;2022-07-03T10:03:11;8.77;;;5.00;;
70929;SDS011;58588;48.102;19.682;2022-07-03T10:06:13;9.40;;;5.07;;
70929;SDS011;58588;48.102;19.682;2022-07-03T10:09:16;9.45;;;4.78;;
70929;SDS011;58588;48.102;19.682;2022-07-03T10:12:20;7.65;;;4.45;;
70929;SDS011;58588;48.102;19.682;2022-07-03T10:15:22;8.48;;;4.80;;
70929;SDS011;58588;48.102;19.682;2022-07-03T10:18:27;10.80;;;4.50;;
70929;SDS011;58588;48.102;19.682;2022-07-03T10:21:31;9.70;;;4.60;;
70929;SDS011;58588;48.102;19.682;2022-07-03T10:24:34;7.93;;;4.38;;
70929;SDS011;58588;48.102;19.682;2022-07-03T10:27:39;7.25;;;3.72;;
70929;SDS011;58588;48.102;19.682;2022-07-03T10:30:41;6.60;;;3.85;;
70929;SDS011;58588;48.102;19.682;2022-07-03T10:33:45;8.98;;;3.65;;
70929;SDS011;58588;48.102;19.682;2022-07-03T10:36:49;6.50;;;3.33;;
70929;SDS011;58588;48.102;19.682;2022-07-03T10:39:55;7.05;;;3.50;;
70929;SDS011;58588;48.102;19.682;2022-07-03T10:43:26;7.60;;;4.05;;
70929;SDS011;58588;48.102;19.682;2022-07-03T10:46:46;6.88;;;3.30;;
70929;SDS011;58588;48.102;19.682;2022-07-03T10:50:00;8.07;;;3.20;;
70929;SDS011;58588;48.102;19.682;2022-07-03T10:56:25;5.55;;;2.10;;
70929;SDS011;58588;48.102;19.682;2022-07-03T11:03:12;5.10;;;2.10;;
70929;SDS011;58588;48.102;19.682;2022-07-03T11:07:07;5.15;;;1.90;;
70929;SDS011;58588;48.102;19.682;2022-07-03T11:10:28;5.47;;;2.40;;
70929;SDS011;58588;48.102;19.682;2022-07-03T11:13:32;7.03;;;2.58;;
70929;SDS011;58588;48.102;19.682;2022-07-03T11:16:33;5.95;;;2.63;;
70929;SDS011;58588;48.102;19.682;2022-07-03T11:19:37;7.53;;;3.03;;
70929;SDS011;58588;48.102;19.682;2022-07-03T11:22:43;7.72;;;3.25;;
70929;SDS011;58588;48.102;19.682;2022-07-03T11:25:57;7.33;;;3.60;;
70929;SDS011;58588;48.102;19.682;2022-07-03T11:29:00;11.45;;;3.65;;
70929;SDS011;58588;48.102;19.682;2022-07-03T11:35:52;7.30;;;3.30;;
70929;SDS011;58588;48.102;19.682;2022-07-03T11:39:05;7.30;;;3.42;;
70929;SDS011;58588;48.102;19.682;2022-07-03T11:42:09;8.60;;;3.40;;
70929;SDS011;58588;48.102;19.682;2022-07-03T11:45:11;8.25;;;2.92;;
70929;SDS011;58588;48.102;19.682;2022-07-03T11:48:14;6.55;;;3.30;;
70929;SDS011;58588;48.102;19.682;2022-07-03T11:51:18;6.63;;;3.15;;
70929;SDS011;58588;48.102;19.682;2022-07-03T11:54:20;7.28;;;3.20;;
70929;SDS011;58588;48.102;19.682;2022-07-03T11:57:22;7.83;;;3.17;;
70929;SDS011;58588;48.102;19.682;2022-07-03T12:00:24;7.15;;;3.05;;
70929;SDS011;58588;48.102;19.682;2022-07-03T12:03:30;6.78;;;2.95;;
70929;SDS011;58588;48.102;19.682;2022-07-03T12:06:34;6.32;;;2.80;;
70929;SDS011;58588;48.102;19.682;2022-07-03T12:09:37;6.47;;;2.83;;
70929;SDS011;58588;48.102;19.682;2022-07-03T12:12:39;9.13;;;2.73;;
70929;SDS011;58588;48.102;19.682;2022-07-03T12:15:41;6.25;;;2.72;;
70929;SDS011;58588;48.102;19.682;2022-07-03T12:18:43;10.50;;;3.10;;
70929;SDS011;58588;48.102;19.682;2022-07-03T12:21:48;9.77;;;3.17;;
70929;SDS011;58588;48.102;19.682;2022-07-03T12:24:57;7.38;;;2.80;;
70929;SDS011;58588;48.102;19.682;2022-07-03T12:28:01;7.33;;;2.90;;
70929;SDS011;58588;48.102;19.682;2022-07-03T12:31:03;8.18;;;2.80;;
70929;SDS011;58588;48.102;19.682;2022-07-03T12:34:06;7.90;;;3.20;;
70929;SDS011;58588;48.102;19.682;2022-07-03T12:37:09;12.25;;;3.60;;
70929;SDS011;58588;48.102;19.682;2022-07-03T12:40:11;12.38;;;5.75;;
70929;SDS011;58588;48.102;19.682;2022-07-03T12:43:14;14.40;;;8.83;;
70929;SDS011;58588;48.102;19.682;2022-07-03T12:46:17;9.32;;;5.82;;
70929;SDS011;58588;48.102;19.682;2022-07-03T12:49:23;12.95;;;7.47;;
70929;SDS011;58588;48.102;19.682;2022-07-03T12:52:27;6.88;;;3.47;;
70929;SDS011;58588;48.102;19.682;2022-07-03T12:55:32;7.57;;;3.70;;
70929;SDS011;58588;48.102;19.682;2022-07-03T12:58:47;5.90;;;3.20;;
70929;SDS011;58588;48.102;19.682;2022-07-03T13:02:06;7.97;;;3.70;;
70929;SDS011;58588;48.102;19.682;2022-07-03T13:05:13;6.30;;;3.30;;
70929;SDS011;58588;48.102;19.682;2022-07-03T13:08:19;6.97;;;3.42;;
70929;SDS011;58588;48.102;19.682;2022-07-03T13:11:34;8.93;;;5.15;;
70929;SDS011;58588;48.102;19.682;2022-07-03T13:14:37;12.33;;;4.27;;
70929;SDS011;58588;48.102;19.682;2022-07-03T13:21:01;7.57;;;3.72;;
70929;SDS011;58588;48.102;19.682;2022-07-03T13:24:05;7.88;;;3.17;;
70929;SDS011;58588;48.102;19.682;2022-07-03T13:27:18;7.07;;;2.90;;
70929;SDS011;58588;48.102;19.682;2022-07-03T13:30:30;9.43;;;2.93;;
70929;SDS011;58588;48.102;19.682;2022-07-03T13:33:38;8.43;;;2.72;;
70929;SDS011;58588;48.102;19.682;2022-07-03T13:36:40;5.80;;;2.63;;
70929;SDS011;58588;48.102;19.682;2022-07-03T13:39:47;6.93;;;2.97;;
70929;SDS011;58588;48.102;19.682;2022-07-03T13:42:55;10.15;;;2.47;;
70929;SDS011;58588;48.102;19.682;2022-07-03T13:46:00;9.87;;;6.27;;
70929;SDS011;58588;48.102;19.682;2022-07-03T13:49:02;10.65;;;8.35;;
70929;SDS011;58588;48.102;19.682;2022-07-03T13:52:07;7.63;;;3.55;;
70929;SDS011;58588;48.102;19.682;2022-07-03T13:55:58;10.60;;;3.13;;
70929;SDS011;58588;48.102;19.682;2022-07-03T13:59:01;15.27;;;8.05;;
70929;SDS011;58588;48.102;19.682;2022-07-03T14:02:05;8.17;;;3.00;;
70929;SDS011;58588;48.102;19.682;2022-07-03T14:05:12;6.82;;;2.60;;
70929;SDS011;58588;48.102;19.682;2022-07-03T14:08:20;6.53;;;2.42;;
70929;SDS011;58588;48.102;19.682;2022-07-03T14:11:24;7.35;;;2.55;;
70929;SDS011;58588;48.102;19.682;2022-07-03T14:14:26;6.03;;;2.40;;
70929;SDS011;58588;48.102;19.682;2022-07-03T14:17:28;6.27;;;2.60;;
70929;SDS011;58588;48.102;19.682;2022-07-03T14:20:30;6.90;;;2.28;;
70929;SDS011;58588;48.102;19.682;2022-07-03T14:23:32;6.43;;;2.40;;
70929;SDS011;58588;48.102;19.682;2022-07-03T14:26:36;7.32;;;3.00;;
70929;SDS011;58588;48.102;19.682;2022-07-03T14:30:07;7.63;;;2.80;;
70929;SDS011;58588;48.102;19.682;2022-07-03T14:33:27;7.10;;;2.50;;
70929;SDS011;58588;48.102;19.682;2022-07-03T14:36:29;12.05;;;2.72;;
70929;SDS011;58588;48.102;19.682;2022-07-03T14:39:31;5.70;;;2.40;;
70929;SDS011;58588;48.102;19.682;2022-07-03T14:42:34;6.53;;;2.80;;
70929;SDS011;58588;48.102;19.682;2022-07-03T14:45:36;5.70;;;2.45;;
70929;SDS011;58588;48.102;19.682;2022-07-03T14:48:38;13.80;;;3.20;;
70929;SDS011;58588;48.102;19.682;2022-07-03T14:51:40;8.60;;;2.88;;
70929;SDS011;58588;48.102;19.682;2022-07-03T14:54:42;6.07;;;2.60;;
70929;SDS011;58588;48.102;19.682;2022-07-03T14:57:49;6.28;;;2.75;;
70929;SDS011;58588;48.102;19.682;2022-07-03T15:00:59;15.57;;;2.35;;
70929;SDS011;58588;48.102;19.682;2022-07-03T15:04:04;7.93;;;3.00;;
70929;SDS011;58588;48.102;19.682;2022-07-03T15:07:12;7.70;;;2.50;;
70929;SDS011;58588;48.102;19.682;2022-07-03T15:10:15;16.75;;;2.70;;
70929;SDS011;58588;48.102;19.682;2022-07-03T15:13:19;9.05;;;2.92;;
70929;SDS011;58588;48.102;19.682;2022-07-03T15:16:21;6.60;;;2.70;;
70929;SDS011;58588;48.102;19.682;2022-07-03T15:19:24;10.60;;;2.50;;
70929;SDS011;58588;48.102;19.682;2022-07-03T15:22:26;7.57;;;2.80;;
70929;SDS011;58588;48.102;19.682;2022-07-03T15:25:31;23.00;;;3.10;;
70929;SDS011;58588;48.102;19.682;2022-07-03T15:28:35;8.73;;;2.72;;
70929;SDS011;58588;48.102;19.682;2022-07-03T15:31:37;7.93;;;2.20;;
70929;SDS011;58588;48.102;19.682;2022-07-03T15:34:39;8.43;;;2.77;;
70929;SDS011;58588;48.102;19.682;2022-07-03T15:37:44;17.20;;;3.17;;
70929;SDS011;58588;48.102;19.682;2022-07-03T15:40:55;6.95;;;2.38;;
70929;SDS011;58588;48.102;19.682;2022-07-03T15:44:02;6.05;;;2.55;;
70929;SDS011;58588;48.102;19.682;2022-07-03T15:47:20;5.90;;;2.25;;
70929;SDS011;58588;48.102;19.682;2022-07-03T15:50:35;10.03;;;2.40;;
70929;SDS011;58588;48.102;19.682;2022-07-03T15:53:41;8.38;;;2.60;;
70929;SDS011;58588;48.102;19.682;2022-07-03T15:56:46;8.15;;;2.60;;
70929;SDS011;58588;48.102;19.682;2022-07-03T15:59:57;6.68;;;2.38;;
70929;SDS011;58588;48.102;19.682;2022-07-03T16:03:02;9.77;;;2.60;;
70929;SDS011;58588;48.102;19.682;2022-07-03T16:13:42;6.03;;;2.35;;
70929;SDS011;58588;48.102;19.682;2022-07-03T16:16:45;5.15;;;2.20;;
70929;SDS011;58588;48.102;19.682;2022-07-03T16:19:49;7.68;;;2.80;;
70929;SDS011;58588;48.102;19.682;2022-07-03T16:22:52;7.83;;;3.10;;
70929;SDS011;58588;48.102;19.682;2022-07-03T16:25:57;5.60;;;2.92;;
70929;SDS011;58588;48.102;19.682;2022-07-03T16:29:00;6.38;;;3.05;;
70929;SDS011;58588;48.102;19.682;2022-07-03T16:32:05;7.25;;;2.70;;
70929;SDS011;58588;48.102;19.682;2022-07-03T16:35:10;7.25;;;2.65;;
70929;SDS011;58588;48.102;19.682;2022-07-03T16:38:17;6.60;;;2.90;;
70929;SDS011;58588;48.102;19.682;2022-07-03T16:41:24;6.22;;;2.60;;
70929;SDS011;58588;48.102;19.682;2022-07-03T16:44:27;8.73;;;2.80;;
70929;SDS011;58588;48.102;19.682;2022-07-03T16:47:33;8.75;;;2.92;;
70929;SDS011;58588;48.102;19.682;2022-07-03T16:50:40;9.45;;;2.50;;
70929;SDS011;58588;48.102;19.682;2022-07-03T16:53:49;5.37;;;2.50;;
70929;SDS011;58588;48.102;19.682;2022-07-03T16:56:51;6.82;;;2.25;;
70929;SDS011;58588;48.102;19.682;2022-07-03T16:59:54;6.82;;;2.42;;
70929;SDS011;58588;48.102;19.682;2022-07-03T17:02:57;6.20;;;2.42;;
70929;SDS011;58588;48.102;19.682;2022-07-03T17:05:59;5.38;;;2.60;;
70929;SDS011;58588;48.102;19.682;2022-07-03T17:09:03;9.23;;;2.90;;
70929;SDS011;58588;48.102;19.682;2022-07-03T17:12:06;5.55;;;2.55;;
70929;SDS011;58588;48.102;19.682;2022-07-03T17:15:08;7.07;;;2.90;;
70929;SDS011;58588;48.102;19.682;2022-07-03T17:18:13;6.60;;;2.70;;
70929;SDS011;58588;48.102;19.682;2022-07-03T17:21:16;8.65;;;2.83;;
70929;SDS011;58588;48.102;19.682;2022-07-03T17:24:22;11.90;;;2.50;;
70929;SDS011;58588;48.102;19.682;2022-07-03T17:27:30;5.40;;;2.85;;
70929;SDS011;58588;48.102;19.682;2022-07-03T17:30:34;7.32;;;2.97;;
70929;SDS011;58588;48.102;19.682;2022-07-03T17:33:38;6.32;;;3.10;;
70929;SDS011;58588;48.102;19.682;2022-07-03T17:36:45;7.43;;;2.90;;
70929;SDS011;58588;48.102;19.682;2022-07-03T17:39:50;6.10;;;2.93;;
70929;SDS011;58588;48.102;19.682;2022-07-03T17:42:54;8.18;;;3.00;;
70929;SDS011;58588;48.102;19.682;2022-07-03T17:45:57;6.03;;;2.90;;
70929;SDS011;58588;48.102;19.682;2022-07-03T17:49:02;6.97;;;2.70;;
70929;SDS011;58588;48.102;19.682;2022-07-03T17:52:06;6.22;;;2.72;;
70929;SDS011;58588;48.102;19.682;2022-07-03T17:55:09;6.37;;;3.20;;
70929;SDS011;58588;48.102;19.682;2022-07-03T17:58:11;10.60;;;3.20;;
70929;SDS011;58588;48.102;19.682;2022-07-03T18:01:16;6.10;;;2.88;;
70929;SDS011;58588;48.102;19.682;2022-07-03T18:04:21;6.00;;;2.80;;
70929;SDS011;58588;48.102;19.682;2022-07-03T18:07:24;7.68;;;3.03;;
70929;SDS011;58588;48.102;19.682;2022-07-03T18:10:39;6.93;;;3.00;;
70929;SDS011;58588;48.102;19.682;2022-07-03T18:13:48;8.50;;;2.95;;
70929;SDS011;58588;48.102;19.682;2022-07-03T18:16:52;9.05;;;2.88;;
70929;SDS011;58588;48.102;19.682;2022-07-03T18:19:58;9.13;;;3.03;;
70929;SDS011;58588;48.102;19.682;2022-07-03T18:23:04;8.35;;;3.28;;
70929;SDS011;58588;48.102;19.682;2022-07-03T18:26:09;9.30;;;3.13;;
70929;SDS011;58588;48.102;19.682;2022-07-03T18:29:18;7.38;;;3.35;;
70929;SDS011;58588;48.102;19.682;2022-07-03T18:32:19;7.75;;;3.10;;
70929;SDS011;58588;48.102;19.682;2022-07-03T18:35:23;6.85;;;2.90;;
70929;SDS011;58588;48.102;19.682;2022-07-03T18:38:27;24.00;;;4.93;;
70929;SDS011;58588;48.102;19.682;2022-07-03T18:41:30;21.43;;;3.43;;